Time;durP1;ratioP1;P1;durP2;ratioP2;P2;SDS_P1;SDS_P2;PMS_P1;PMS_P2;Temp;Humidity;BMP_temperature;BMP_pressure;BME280_temperature;BME280_humidity;BME280_pressure;Samples;Min_cycle;Max_cycle;Signal;HPM_P1;HPM_P2
2023/06/15 00:01:55;;;;;;;10.43;9.43;;;23.80;99.90;;;;;;5035341;28;20502;-61
2023/06/15 00:07:57;;;;;;;10.75;9.65;;;23.70;1.00;;;;;;5030893;28;20076;-61
2023/06/15 00:10:22;;;;;;;10.95;9.80;;;23.60;1.00;;;;;;5034450;28;20491;-61
2023/06/15 00:12:48;;;;;;;11.65;10.55;;;23.60;1.00;;;;;;5033643;28;20038;-61
2023/06/15 00:15:15;;;;;;;13.25;10.68;;;23.50;1.00;;;;;;5035205;28;20028;-61
2023/06/15 00:17:42;;;;;;;13.07;11.32;;;23.40;1.00;;;;;;5032844;28;20454;-61
2023/06/15 00:20:08;;;;;;;12.63;11.32;;;23.40;1.00;;;;;;5033241;28;20094;-61
2023/06/15 00:22:38;;;;;;;13.80;12.55;;;23.50;1.00;;;;;;5034411;28;20030;-61
2023/06/15 00:25:04;;;;;;;13.38;12.05;;;23.40;1.00;;;;;;5034155;28;20017;-61
2023/06/15 00:27:30;;;;;;;17.35;12.82;;;23.40;1.00;;;;;;5035055;28;20022;-61
2023/06/15 00:29:55;;;;;;;12.38;11.18;;;23.40;1.00;;;;;;5032673;28;20082;-61
2023/06/15 00:32:21;;;;;;;15.75;11.52;;;23.40;1.00;;;;;;5032682;28;20068;-61
2023/06/15 00:34:47;;;;;;;13.95;12.68;;;23.40;1.00;;;;;;5034786;28;20021;-61
2023/06/15 00:37:12;;;;;;;12.52;11.27;;;23.30;1.00;;;;;;5034131;28;20380;-62
2023/06/15 00:39:38;;;;;;;13.05;11.75;;;23.30;1.00;;;;;;5034674;28;20040;-62
2023/06/15 00:42:04;;;;;;;11.60;10.50;;;23.40;1.00;;;;;;5032569;28;20071;-62
2023/06/15 00:44:30;;;;;;;11.55;10.32;;;23.30;1.00;;;;;;5032665;28;20136;-61
2023/06/15 00:46:57;;;;;;;12.43;11.00;;;23.30;1.00;;;;;;5032781;28;20021;-61
2023/06/15 00:49:23;;;;;;;13.05;10.70;;;23.30;1.00;;;;;;5032013;28;20025;-61
2023/06/15 00:51:49;;;;;;;10.68;9.60;;;23.20;1.00;;;;;;5033959;28;20460;-61
2023/06/15 00:54:19;;;;;;;13.23;10.70;;;23.30;1.00;;;;;;5033414;28;20032;-61
2023/06/15 00:56:44;;;;;;;11.13;9.82;;;23.20;1.00;;;;;;5033192;28;20037;-61
2023/06/15 00:59:10;;;;;;;12.18;9.82;;;23.20;1.00;;;;;;5032361;28;20030;-61
2023/06/15 01:01:35;;;;;;;11.68;10.20;;;23.20;1.00;;;;;;5034100;28;20033;-61
2023/06/15 01:04:01;;;;;;;10.98;9.73;;;23.20;1.00;;;;;;5033306;28;20076;-61
2023/06/15 01:06:31;;;;;;;10.18;9.18;;;23.10;1.00;;;;;;5033453;28;20025;-61
2023/06/15 01:09:01;;;;;;;11.20;10.02;;;23.10;1.00;;;;;;5034488;28;20414;-61
2023/06/15 01:11:28;;;;;;;11.40;10.23;;;23.20;1.00;;;;;;5031349;28;20092;-61
2023/06/15 01:13:55;;;;;;;10.48;9.48;;;23.20;1.00;;;;;;5032964;28;20033;-61
2023/06/15 01:16:37;;;;;;;10.35;9.25;;;23.20;1.00;;;;;;5031859;28;20026;-61
2023/06/15 01:19:08;;;;;;;10.93;9.90;;;23.20;1.00;;;;;;5032163;28;20105;-61
2023/06/15 01:21:34;;;;;;;10.93;9.85;;;23.10;1.00;;;;;;5031775;28;20030;-61
2023/06/15 01:24:24;;;;;;;24.48;11.48;;;23.10;1.00;;;;;;5031741;28;20044;-61
2023/06/15 01:26:50;;;;;;;10.40;9.40;;;23.10;1.00;;;;;;5031068;28;20044;-61
2023/06/15 01:29:17;;;;;;;10.48;9.48;;;23.10;1.00;;;;;;5023435;28;20492;-62
2023/06/15 01:31:43;;;;;;;12.30;9.63;;;23.20;1.00;;;;;;5032788;28;20148;-61
2023/06/15 01:34:09;;;;;;;10.45;9.30;;;23.10;1.00;;;;;;5033455;28;20188;-61
2023/06/15 01:36:36;;;;;;;12.43;9.32;;;23.10;1.00;;;;;;5031874;28;20033;-61
2023/06/15 01:39:45;;;;;;;11.73;9.18;;;23.10;1.00;;;;;;5032632;28;20022;-61
2023/06/15 01:42:11;;;;;;;9.90;9.00;;;23.10;1.00;;;;;;5030128;28;20044;-61
2023/06/15 01:44:40;;;;;;;9.90;8.85;;;23.00;1.00;;;;;;5032264;28;20029;-61
2023/06/15 01:47:06;;;;;;;10.02;8.32;;;23.10;1.00;;;;;;5032672;28;20034;-61
2023/06/15 01:49:33;;;;;;;8.75;7.85;;;23.10;1.00;;;;;;5032742;28;20387;-61
2023/06/15 01:51:59;;;;;;;8.95;8.05;;;23.20;1.00;;;;;;5033090;28;20092;-61
2023/06/15 01:54:25;;;;;;;9.68;8.77;;;23.20;1.00;;;;;;5033259;28;20056;-61
2023/06/15 01:56:51;;;;;;;9.32;8.43;;;23.20;1.00;;;;;;5031924;28;20463;-60
2023/06/15 01:59:17;;;;;;;10.30;8.00;;;23.10;1.00;;;;;;5033333;28;20111;-60
2023/06/15 02:01:45;;;;;;;8.80;7.85;;;23.10;1.00;;;;;;5032009;28;20022;-61
2023/06/15 02:04:11;;;;;;;9.77;8.98;;;23.10;1.00;;;;;;5031470;28;20032;-61
2023/06/15 02:06:36;;;;;;;9.35;8.38;;;23.10;1.00;;;;;;5033224;28;20374;-61
2023/06/15 02:09:02;;;;;;;9.57;8.43;;;22.90;1.00;;;;;;5032310;28;20025;-62
2023/06/15 02:11:29;;;;;;;12.05;8.30;;;23.00;1.00;;;;;;5031919;28;20483;-61
2023/06/15 02:13:55;;;;;;;10.13;7.90;;;23.00;1.00;;;;;;5032265;28;20108;-61
2023/06/15 02:16:20;;;;;;;9.77;8.88;;;22.90;1.00;;;;;;5031310;28;20121;-62
2023/06/15 02:18:47;;;;;;;9.52;8.60;;;22.90;1.00;;;;;;5025280;28;20060;-62
2023/06/15 02:21:13;;;;;;;9.40;8.50;;;22.90;1.00;;;;;;5031038;28;20112;-62
2023/06/15 02:23:39;;;;;;;11.20;10.02;;;22.80;1.00;;;;;;5033315;28;20072;-62
2023/06/15 02:26:04;;;;;;;10.88;9.82;;;22.80;1.00;;;;;;5031445;28;20017;-61
2023/06/15 02:28:30;;;;;;;11.45;10.10;;;22.80;1.00;;;;;;5032900;28;20017;-62
2023/06/15 02:30:56;;;;;;;11.07;9.98;;;22.80;1.00;;;;;;5030896;28;20041;-62
2023/06/15 02:33:21;;;;;;;10.75;9.75;;;22.70;1.00;;;;;;5033260;28;20025;-62
2023/06/15 02:35:47;;;;;;;11.20;10.10;;;22.70;1.00;;;;;;5031896;28;20040;-62
2023/06/15 02:38:12;;;;;;;10.90;9.80;;;22.60;1.00;;;;;;5032941;28;20453;-62
2023/06/15 02:40:38;;;;;;;11.82;10.68;;;22.60;1.00;;;;;;5030980;28;20083;-62
2023/06/15 02:43:04;;;;;;;12.85;10.82;;;22.40;1.00;;;;;;5032880;28;20361;-61
2023/06/15 02:45:29;;;;;;;12.88;11.45;;;22.50;1.00;;;;;;5030608;28;20034;-61
2023/06/15 02:47:56;;;;;;;13.25;11.35;;;22.40;1.00;;;;;;5032963;28;20111;-62
2023/06/15 02:50:21;;;;;;;13.10;11.60;;;22.30;1.00;;;;;;5031362;28;20052;-62
2023/06/15 02:52:47;;;;;;;14.38;12.02;;;22.40;1.00;;;;;;5031597;28;20033;-62
2023/06/15 02:55:13;;;;;;;12.23;11.00;;;22.30;1.00;;;;;;5032711;28;20099;-62
2023/06/15 02:57:40;;;;;;;14.50;13.10;;;22.40;1.00;;;;;;5031184;28;20034;-62
2023/06/15 03:00:09;;;;;;;13.82;12.52;;;22.30;1.00;;;;;;5031095;28;20106;-62
2023/06/15 03:02:35;;;;;;;13.73;12.32;;;22.40;1.00;;;;;;5025989;28;20064;-62
2023/06/15 03:05:02;;;;;;;15.00;13.40;;;22.30;1.00;;;;;;5029860;28;20022;-62
2023/06/15 03:07:30;;;;;;;14.38;12.70;;;22.30;1.00;;;;;;5031730;28;20029;-61
2023/06/15 03:09:55;;;;;;;14.00;12.50;;;22.30;1.00;;;;;;5030906;28;20026;-61
2023/06/15 03:12:21;;;;;;;14.55;13.05;;;22.20;1.00;;;;;;5032548;28;20022;-61
2023/06/15 03:14:50;;;;;;;13.23;11.90;;;22.20;1.00;;;;;;5032722;28;20100;-61
2023/06/15 03:17:21;;;;;;;15.10;12.93;;;22.20;1.00;;;;;;5030790;28;20030;-62
2023/06/15 03:19:47;;;;;;;14.00;11.43;;;22.20;1.00;;;;;;5034562;28;20063;-61
2023/06/15 03:22:14;;;;;;;13.18;11.88;;;22.10;1.00;;;;;;5034705;28;20512;-61
2023/06/15 03:24:41;;;;;;;16.60;11.32;;;22.10;1.00;;;;;;5028500;28;20471;-61
2023/06/15 03:27:09;;;;;;;15.13;12.10;;;22.10;1.00;;;;;;5038349;28;20025;-61
2023/06/15 03:29:39;;;;;;;11.60;10.35;;;22.00;1.00;;;;;;5046892;28;20021;-61
2023/06/15 03:32:06;;;;;;;13.73;11.70;;;22.10;1.00;;;;;;5034144;28;20111;-61
2023/06/15 03:34:32;;;;;;;12.40;10.93;;;22.00;1.00;;;;;;5028312;28;20172;-61
2023/06/15 03:36:57;;;;;;;12.43;11.00;;;22.00;1.00;;;;;;5034052;28;20096;-61
2023/06/15 03:39:23;;;;;;;12.65;11.35;;;22.10;1.00;;;;;;5034195;28;20475;-61
2023/06/15 03:41:49;;;;;;;15.90;11.60;;;22.00;1.00;;;;;;5032885;28;20469;-61
2023/06/15 03:44:14;;;;;;;14.30;12.10;;;22.10;1.00;;;;;;5032117;28;20037;-61
2023/06/15 03:46:44;;;;;;;12.90;11.32;;;21.90;1.00;;;;;;5033022;28;20028;-61
2023/06/15 03:49:10;;;;;;;13.32;12.05;;;21.80;1.00;;;;;;5034056;28;20018;-61
2023/06/15 03:51:37;;;;;;;11.65;10.45;;;21.90;1.00;;;;;;5035393;28;20133;-61
2023/06/15 03:54:03;;;;;;;13.57;11.60;;;21.90;1.00;;;;;;5031686;28;20039;-61
2023/06/15 03:56:29;;;;;;;12.25;11.05;;;21.80;1.00;;;;;;5035863;28;20029;-61
2023/06/15 03:58:54;;;;;;;12.10;10.77;;;21.80;1.00;;;;;;5035674;28;20092;-63
2023/06/15 04:01:22;;;;;;;12.48;10.82;;;21.90;1.00;;;;;;5035469;28;20034;-62
2023/06/15 04:03:48;;;;;;;12.07;10.98;;;21.80;1.00;;;;;;5033005;28;20057;-61
2023/06/15 04:06:15;;;;;;;12.38;11.05;;;21.80;1.00;;;;;;5034482;28;20057;-62
2023/06/15 04:08:41;;;;;;;12.80;10.27;;;21.70;1.00;;;;;;5035395;28;20026;-61
2023/06/15 04:11:07;;;;;;;13.13;11.13;;;21.90;1.00;;;;;;5034283;28;20081;-61
2023/06/15 04:13:32;;;;;;;12.07;10.57;;;21.80;1.00;;;;;;5035262;28;20056;-61
2023/06/15 04:15:58;;;;;;;12.18;10.68;;;21.80;1.00;;;;;;5033198;28;20418;-61
2023/06/15 04:18:24;;;;;;;12.07;10.75;;;21.80;1.00;;;;;;5035185;28;20028;-61
2023/06/15 04:20:51;;;;;;;12.25;11.05;;;21.90;1.00;;;;;;5033661;28;20475;-61
2023/06/15 04:23:17;;;;;;;12.20;10.85;;;21.90;1.00;;;;;;5034377;28;20025;-61
2023/06/15 04:25:43;;;;;;;11.27;10.18;;;21.90;1.00;;;;;;5034561;28;20022;-61
2023/06/15 04:28:11;;;;;;;11.35;10.25;;;21.80;1.00;;;;;;5045406;28;20056;-61
2023/06/15 04:30:40;;;;;;;11.68;10.57;;;21.80;1.00;;;;;;5034757;28;20064;-61
2023/06/15 04:33:12;;;;;;;11.88;10.80;;;21.80;1.00;;;;;;5034012;28;20030;-62
2023/06/15 04:35:45;;;;;;;11.60;10.40;;;21.90;1.00;;;;;;5034922;28;20155;-61
2023/06/15 04:38:12;;;;;;;11.65;10.65;;;21.90;1.00;;;;;;5033167;28;20034;-62
2023/06/15 04:40:39;;;;;;;10.45;9.52;;;21.90;1.00;;;;;;5034840;28;20034;-61
2023/06/15 04:43:05;;;;;;;12.45;9.52;;;21.90;1.00;;;;;;5034092;28;20029;-61
2023/06/15 04:45:30;;;;;;;11.18;10.13;;;22.00;1.00;;;;;;5032777;28;20091;-61
2023/06/15 04:47:56;;;;;;;12.05;10.88;;;21.90;1.00;;;;;;5034580;28;20025;-62
2023/06/15 04:50:22;;;;;;;11.20;10.02;;;21.90;1.00;;;;;;5026524;28;20124;-61
2023/06/15 04:52:51;;;;;;;10.35;9.38;;;21.90;1.00;;;;;;5032878;28;20025;-61
2023/06/15 04:55:16;;;;;;;10.30;9.10;;;21.90;1.00;;;;;;5033775;28;20017;-61
2023/06/15 04:57:48;;;;;;;10.45;8.48;;;21.80;1.00;;;;;;5034324;28;20033;-61
2023/06/15 05:00:15;;;;;;;10.00;9.10;;;21.90;1.00;;;;;;5031891;28;20018;-62
2023/06/15 05:02:40;;;;;;;11.82;8.45;;;21.90;1.00;;;;;;5034487;28;20036;-62
2023/06/15 05:05:06;;;;;;;10.85;8.82;;;21.90;1.00;;;;;;5033529;28;20029;-62
2023/06/15 05:07:32;;;;;;;11.30;8.95;;;21.90;1.00;;;;;;5032337;28;20040;-62
2023/06/15 05:09:58;;;;;;;9.52;8.63;;;22.00;1.00;;;;;;5032308;28;20025;-61
2023/06/15 05:12:23;;;;;;;8.98;7.93;;;22.00;1.00;;;;;;5034158;28;20403;-61
2023/06/15 05:14:49;;;;;;;8.88;7.95;;;22.00;1.00;;;;;;5032687;28;20028;-61
2023/06/15 05:17:15;;;;;;;9.32;8.25;;;21.90;1.00;;;;;;5033307;28;20029;-61
2023/06/15 05:19:40;;;;;;;12.32;8.75;;;22.00;1.00;;;;;;5032398;28;20052;-61
2023/06/15 05:22:06;;;;;;;10.02;8.73;;;22.00;1.00;;;;;;5033869;28;20037;-61
2023/06/15 05:24:32;;;;;;;9.15;7.35;;;21.90;1.00;;;;;;5032247;28;20457;-61
2023/06/15 05:26:58;;;;;;;9.40;7.82;;;22.00;1.00;;;;;;5035838;28;20030;-62
2023/06/15 05:29:23;;;;;;;7.82;6.95;;;22.10;1.00;;;;;;5045605;28;20108;-61
2023/06/15 05:31:49;;;;;;;9.25;8.30;;;21.90;1.00;;;;;;5027776;28;20045;-62
2023/06/15 05:34:15;;;;;;;11.32;8.70;;;21.80;1.00;;;;;;5033897;28;20068;-62
2023/06/15 05:36:41;;;;;;;8.40;7.63;;;21.80;1.00;;;;;;5031038;28;20364;-62
2023/06/15 05:39:07;;;;;;;10.10;8.02;;;21.80;1.00;;;;;;5032550;28;20025;-62
2023/06/15 05:41:33;;;;;;;9.02;8.20;;;21.90;1.00;;;;;;5033595;28;20029;-62
2023/06/15 05:44:01;;;;;;;9.13;7.78;;;21.80;1.00;;;;;;5032884;28;20112;-62
2023/06/15 05:46:27;;;;;;;10.20;8.60;;;21.90;1.00;;;;;;5033742;28;20029;-62
2023/06/15 05:48:53;;;;;;;8.88;7.90;;;21.80;1.00;;;;;;5032568;28;20022;-62
2023/06/15 05:51:19;;;;;;;10.25;8.45;;;21.90;1.00;;;;;;5031312;28;20054;-62
2023/06/15 05:53:44;;;;;;;9.48;8.55;;;21.90;1.00;;;;;;5032563;28;20074;-62
2023/06/15 05:56:10;;;;;;;9.23;8.20;;;21.90;1.00;;;;;;5031766;28;20070;-62
2023/06/15 05:58:37;;;;;;;10.38;9.35;;;22.00;1.00;;;;;;5033607;28;20108;-62
2023/06/15 06:01:03;;;;;;;8.45;7.53;;;21.90;1.00;;;;;;5031081;28;20089;-62
2023/06/15 06:03:29;;;;;;;9.35;7.32;;;22.00;1.00;;;;;;5032406;28;20372;-62
2023/06/15 06:05:54;;;;;;;7.10;6.40;;;22.10;1.00;;;;;;5031102;28;20045;-62
2023/06/15 06:08:21;;;;;;;7.95;6.47;;;22.20;1.00;;;;;;5033207;28;20033;-62
2023/06/15 06:10:47;;;;;;;8.88;7.45;;;22.10;1.00;;;;;;5027135;28;20072;-62
2023/06/15 06:13:13;;;;;;;7.57;6.88;;;22.10;1.00;;;;;;5031834;28;20013;-62
2023/06/15 06:15:38;;;;;;;7.70;6.25;;;22.10;1.00;;;;;;5031132;28;20112;-65
2023/06/15 06:18:04;;;;;;;8.35;7.53;;;22.10;1.00;;;;;;5032024;28;20022;-62
2023/06/15 06:20:31;;;;;;;8.43;7.28;;;22.10;1.00;;;;;;5032378;28;20030;-62
2023/06/15 06:22:57;;;;;;;7.65;6.55;;;22.00;1.00;;;;;;5031323;28;20021;-61
2023/06/15 06:25:23;;;;;;;8.52;7.00;;;22.10;1.00;;;;;;5032205;28;20505;-61
2023/06/15 06:27:48;;;;;;;8.52;7.25;;;22.30;1.00;;;;;;5037156;28;20037;-60
2023/06/15 06:30:14;;;;;;;8.07;7.28;;;22.40;1.00;;;;;;5033376;28;20033;-53
2023/06/15 06:32:40;;;;;;;8.52;7.03;;;22.30;1.00;;;;;;5031686;28;20021;-55
2023/06/15 06:35:06;;;;;;;8.00;7.20;;;22.40;1.00;;;;;;5031661;28;20493;-50
2023/06/15 06:37:32;;;;;;;7.40;6.70;;;22.50;1.00;;;;;;5031511;28;20047;-54
2023/06/15 06:39:57;;;;;;;9.13;7.50;;;22.50;1.00;;;;;;5031822;28;20550;-54
2023/06/15 06:42:24;;;;;;;8.45;7.65;;;22.60;1.00;;;;;;5032753;28;20104;-56
2023/06/15 06:44:49;;;;;;;7.53;6.75;;;22.60;1.00;;;;;;5031602;28;20074;-52
2023/06/15 06:47:15;;;;;;;13.23;7.53;;;22.70;1.00;;;;;;5032645;28;20413;-53
2023/06/15 06:49:41;;;;;;;8.35;7.18;;;22.70;1.00;;;;;;5031330;28;20033;-52
2023/06/15 06:52:07;;;;;;;7.40;6.63;;;22.60;1.00;;;;;;5032557;28;20053;-55
2023/06/15 06:54:32;;;;;;;11.57;7.47;;;22.60;1.00;;;;;;5037098;28;20147;-56
2023/06/15 06:56:59;;;;;;;7.47;6.72;;;22.70;1.00;;;;;;5034513;28;20028;-54
2023/06/15 06:59:25;;;;;;;12.55;6.85;;;22.70;1.00;;;;;;5032372;28;20594;-55
2023/06/15 07:01:51;;;;;;;7.65;6.85;;;22.80;1.00;;;;;;5036081;28;20064;-56
2023/06/15 07:04:16;;;;;;;7.47;6.30;;;22.80;1.00;;;;;;5035960;28;20037;-56
2023/06/15 07:06:42;;;;;;;7.07;6.38;;;22.90;1.00;;;;;;5036690;28;20036;-55
2023/06/15 07:09:07;;;;;;;9.23;6.47;;;22.90;1.00;;;;;;5035525;28;20135;-56
2023/06/15 07:11:33;;;;;;;10.27;6.55;;;23.00;1.00;;;;;;5034781;28;20601;-55
2023/06/15 07:14:02;;;;;;;9.70;7.13;;;22.90;1.00;;;;;;5036382;28;20026;-56
2023/06/15 07:16:28;;;;;;;10.88;7.15;;;23.00;1.00;;;;;;5035393;28;20022;-55
2023/06/15 07:18:55;;;;;;;6.80;6.18;;;23.00;1.00;;;;;;5036237;28;20029;-55
2023/06/15 07:21:21;;;;;;;8.32;7.13;;;23.00;1.00;;;;;;5035241;28;20021;-54
2023/06/15 07:23:46;;;;;;;7.63;6.82;;;23.00;1.00;;;;;;5028380;28;20029;-54
2023/06/15 07:26:12;;;;;;;7.97;7.15;;;22.90;1.00;;;;;;5028183;28;20034;-56
2023/06/15 07:28:38;;;;;;;8.77;7.30;;;23.00;1.00;;;;;;5035461;28;20029;-55
2023/06/15 07:31:04;;;;;;;9.50;7.68;;;23.10;1.00;;;;;;5035977;28;20479;-54
2023/06/15 07:33:35;;;;;;;12.35;7.55;;;23.10;1.00;;;;;;5032775;28;20034;-56
2023/06/15 07:36:01;;;;;;;10.90;7.18;;;23.10;1.00;;;;;;5022638;28;20104;-56
2023/06/15 07:38:27;;;;;;;11.38;7.07;;;23.20;1.00;;;;;;5035407;28;20427;-53
2023/06/15 07:40:53;;;;;;;13.23;7.95;;;23.20;1.00;;;;;;5033596;28;20032;-50
2023/06/15 07:43:20;;;;;;;8.23;7.32;;;23.30;1.00;;;;;;5034204;28;20045;-53
2023/06/15 07:45:46;;;;;;;10.00;7.40;;;23.40;1.00;;;;;;5034653;28;20018;-51
2023/06/15 07:48:20;;;;;;;10.00;8.20;;;23.40;99.90;;;;;;5031785;28;20037;-51
2023/06/15 07:50:46;;;;;;;10.90;7.53;;;23.30;99.90;;;;;;5031096;28;20104;-55
2023/06/15 07:53:12;;;;;;;10.15;7.50;;;23.40;99.90;;;;;;5033380;28;20025;-53
2023/06/15 07:55:44;;;;;;;6.93;6.22;;;23.50;99.90;;;;;;5031931;28;20029;-53
2023/06/15 07:58:10;;;;;;;10.52;7.97;;;23.50;99.90;;;;;;5025636;28;20068;-52
2023/06/15 08:00:36;;;;;;;13.55;8.45;;;23.50;99.90;;;;;;5019911;28;20472;-51
2023/06/15 08:03:01;;;;;;;8.02;6.88;;;23.60;99.90;;;;;;5032488;28;20033;-55
2023/06/15 08:05:27;;;;;;;9.38;7.07;;;23.50;99.90;;;;;;5033545;28;20050;-56
2023/06/15 08:07:53;;;;;;;10.20;7.05;;;23.60;99.90;;;;;;5038266;28;20021;-54
2023/06/15 08:10:19;;;;;;;13.73;6.45;;;23.70;99.90;;;;;;5032964;28;20128;-55
2023/06/15 08:16:12;;;;;;;10.00;7.20;;;23.70;99.90;;;;;;5033947;28;20028;-54
2023/06/15 08:18:37;;;;;;;9.50;6.35;;;23.80;99.90;;;;;;5035078;28;20391;-52
2023/06/15 08:21:03;;;;;;;7.40;6.47;;;23.80;99.90;;;;;;5034633;28;20032;-55
2023/06/15 08:23:29;;;;;;;12.52;7.35;;;23.90;99.90;;;;;;5033820;28;20439;-56
2023/06/15 08:26:23;;;;;;;10.00;6.20;;;24.00;99.90;;;;;;5034557;28;20103;-51
2023/06/15 08:28:48;;;;;;;7.70;6.90;;;24.00;99.90;;;;;;5039093;28;20037;-50
2023/06/15 08:31:14;;;;;;;9.18;7.30;;;24.00;99.90;;;;;;5034898;28;20037;-52
2023/06/15 08:33:43;;;;;;;7.43;6.72;;;24.10;99.90;;;;;;5028025;28;20037;-54
2023/06/15 08:36:08;;;;;;;8.80;6.85;;;24.10;99.90;;;;;;5035109;28;20071;-54
2023/06/15 08:38:34;;;;;;;7.70;6.57;;;24.00;99.90;;;;;;5033985;28;20018;-50
2023/06/15 08:41:00;;;;;;;9.15;6.88;;;24.00;99.90;;;;;;5031397;28;20384;-51
2023/06/15 08:43:28;;;;;;;9.05;7.25;;;24.10;99.90;;;;;;5034679;28;20373;-51
2023/06/15 08:45:57;;;;;;;14.88;6.20;;;24.20;99.90;;;;;;5033950;28;20463;-52
2023/06/15 08:48:26;;;;;;;7.60;6.90;;;24.30;99.90;;;;;;5026755;28;20108;-56
2023/06/15 08:50:52;;;;;;;7.68;6.13;;;24.30;99.90;;;;;;5026490;28;20038;-50
2023/06/15 08:53:20;;;;;;;8.70;5.60;;;24.40;99.90;;;;;;5031530;28;20475;-53
2023/06/15 08:55:47;;;;;;;8.30;6.47;;;24.50;99.90;;;;;;5034772;28;20021;-53
2023/06/15 08:58:13;;;;;;;6.43;5.82;;;24.60;99.90;;;;;;5032804;28;20053;-54
2023/06/15 09:00:39;;;;;;;10.57;7.38;;;24.70;99.90;;;;;;5031449;28;20199;-56
2023/06/15 09:03:09;;;;;;;8.85;7.28;;;24.60;99.90;;;;;;5032971;28;20018;-56
2023/06/15 09:05:35;;;;;;;11.75;7.55;;;24.60;99.90;;;;;;5034357;28;20060;-57
2023/06/15 09:08:03;;;;;;;9.57;7.43;;;24.60;99.90;;;;;;5033288;28;20032;-55
2023/06/15 09:10:29;;;;;;;9.65;8.77;;;24.60;99.90;;;;;;5032958;28;20035;-53
2023/06/15 09:12:57;;;;;;;8.98;7.00;;;24.60;99.90;;;;;;5032114;28;20048;-53
2023/06/15 09:15:25;;;;;;;8.43;7.53;;;24.70;99.90;;;;;;5040047;28;20022;-52
2023/06/15 09:17:57;;;;;;;8.50;7.60;;;24.80;99.90;;;;;;5035270;28;20040;-55
2023/06/15 09:20:25;;;;;;;10.40;6.88;;;24.80;99.90;;;;;;5030323;28;20649;-55
2023/06/15 09:22:51;;;;;;;6.47;5.88;;;24.80;99.90;;;;;;5040945;28;20116;-50
2023/06/15 09:25:19;;;;;;;8.68;5.78;;;25.00;99.90;;;;;;5036787;28;20037;-56
2023/06/15 09:27:58;;;;;;;7.68;6.43;;;25.20;99.90;;;;;;5032242;28;20022;-53
2023/06/15 09:30:37;;;;;;;7.85;5.68;;;25.40;99.90;;;;;;5030778;28;20041;-51
2023/06/15 09:33:26;;;;;;;7.60;6.90;;;25.40;99.90;;;;;;5032067;28;20485;-53
2023/06/15 09:35:59;;;;;;;8.27;6.22;;;25.40;99.90;;;;;;5033659;28;20025;-56
2023/06/15 09:38:41;;;;;;;7.82;7.03;;;25.40;99.90;;;;;;5037559;28;20044;-51
2023/06/15 09:41:07;;;;;;;11.27;6.80;;;25.20;99.90;;;;;;5039364;28;20375;-54
2023/06/15 09:43:34;;;;;;;9.50;4.95;;;25.40;99.90;;;;;;5034903;28;20022;-53
2023/06/15 09:46:10;;;;;;;12.48;7.80;;;25.50;99.90;;;;;;5039246;28;20025;-52
2023/06/15 09:48:54;;;;;;;9.55;8.52;;;25.50;99.90;;;;;;5035202;28;20387;-56
2023/06/15 09:51:21;;;;;;;9.43;7.97;;;25.40;99.90;;;;;;5034009;28;20061;-55
2023/06/15 09:53:51;;;;;;;9.60;7.40;;;25.40;99.90;;;;;;5036136;28;20363;-53
2023/06/15 09:56:25;;;;;;;10.90;8.60;;;25.50;99.90;;;;;;5038178;28;20049;-53
2023/06/15 09:58:50;;;;;;;10.75;9.85;;;25.60;99.90;;;;;;5037214;28;20018;-56
2023/06/15 10:01:18;;;;;;;9.50;6.55;;;25.40;99.90;;;;;;5037234;28;20391;-56
2023/06/15 10:03:52;;;;;;;8.38;7.68;;;25.60;99.90;;;;;;5036861;28;20071;-53
2023/06/15 10:06:18;;;;;;;7.70;7.00;;;25.70;99.90;;;;;;5036315;28;20049;-53
2023/06/15 10:08:51;;;;;;;8.65;7.85;;;25.60;99.90;;;;;;5035349;28;20025;-55
2023/06/15 10:11:19;;;;;;;8.02;7.22;;;25.80;99.90;;;;;;5027550;28;20064;-54
2023/06/15 10:13:48;;;;;;;9.05;8.18;;;26.20;99.90;;;;;;5030714;28;20030;-54
2023/06/15 10:16:15;;;;;;;7.43;6.45;;;26.40;99.90;;;;;;5033413;28;20482;-54
2023/06/15 10:18:44;;;;;;;7.80;6.47;;;26.60;99.90;;;;;;5032397;28;20022;-53
2023/06/15 10:21:15;;;;;;;7.35;6.65;;;26.80;99.90;;;;;;5031188;28;20037;-53
2023/06/15 10:23:42;;;;;;;8.90;7.95;;;26.50;99.90;;;;;;5028311;28;20026;-55
2023/06/15 10:26:09;;;;;;;7.55;6.78;;;26.40;99.90;;;;;;5030911;28;20033;-53
2023/06/15 10:28:38;;;;;;;10.20;8.88;;;26.40;99.90;;;;;;5031588;28;20418;-51
2023/06/15 10:31:36;;;;;;;6.47;5.43;;;26.40;99.90;;;;;;5036605;28;20029;-55
2023/06/15 10:34:15;;;;;;;10.48;7.00;;;26.40;99.90;;;;;;5030697;28;20117;-53
2023/06/15 10:36:59;;;;;;;9.05;7.28;;;26.40;99.90;;;;;;5030867;28;20104;-55
2023/06/15 10:39:33;;;;;;;8.52;7.80;;;26.50;99.90;;;;;;5031228;28;20051;-52
2023/06/15 10:42:05;;;;;;;;;;;26.70;99.90;;;;;;5035401;28;20155;-53
2023/06/15 10:44:32;;;;;;;8.60;7.28;;;26.70;99.90;;;;;;5035313;28;19916;-53
2023/06/15 10:47:14;;;;;;;6.85;6.22;;;27.00;99.90;;;;;;5039022;28;20434;-56
2023/06/15 10:49:57;;;;;;;7.35;6.65;;;27.60;99.90;;;;;;5034415;28;20032;-51
2023/06/15 10:52:38;;;;;;;7.13;5.97;;;28.00;99.90;;;;;;5032949;28;20423;-54
2023/06/15 10:55:14;;;;;;;7.25;6.57;;;27.90;99.90;;;;;;5036193;28;20029;-52
2023/06/15 10:57:40;;;;;;;6.20;5.70;;;28.10;99.90;;;;;;5033137;28;20044;-51
2023/06/15 11:00:08;;;;;;;8.73;7.32;;;28.50;99.90;;;;;;5038559;28;20530;-52
2023/06/15 11:02:34;;;;;;;11.18;7.68;;;28.80;99.90;;;;;;5033840;28;20422;-56
2023/06/15 11:05:05;;;;;;;10.43;5.85;;;28.60;99.90;;;;;;5033579;28;20028;-55
2023/06/15 11:07:35;;;;;;;7.35;6.32;;;28.30;99.90;;;;;;5035518;28;20025;-53
2023/06/15 11:10:02;;;;;;;7.90;7.10;;;28.60;99.90;;;;;;5030113;28;20018;-52
2023/06/15 11:12:35;;;;;;;7.78;7.00;;;28.70;99.90;;;;;;5033538;28;20041;-54
2023/06/15 11:15:02;;;;;;;9.83;8.83;;;28.70;99.90;;;;;;5039487;28;20030;-52
2023/06/15 11:17:28;;;;;;;8.27;7.43;;;29.00;99.90;;;;;;5034659;28;20026;-54
2023/06/15 11:19:55;;;;;;;7.70;6.97;;;30.40;99.90;;;;;;5035982;28;20040;-57
2023/06/15 11:22:25;;;;;;;9.52;8.38;;;33.50;99.90;;;;;;5032421;28;20029;-53
2023/06/15 11:24:54;;;;;;;7.38;6.57;;;36.00;99.90;;;;;;5035096;28;20051;-57
2023/06/15 11:27:22;;;;;;;7.85;7.15;;;37.50;99.90;;;;;;5035093;28;20028;-54
2023/06/15 11:30:17;;;;;;;8.23;7.50;;;38.00;99.90;;;;;;5035768;28;20352;-55
2023/06/15 11:32:43;;;;;;;8.73;7.82;;;36.10;99.90;;;;;;5038741;28;20633;-56
2023/06/15 11:35:10;;;;;;;9.02;8.02;;;35.80;99.90;;;;;;5034805;28;20084;-55
2023/06/15 11:37:35;;;;;;;8.80;7.95;;;38.40;99.90;;;;;;5035817;28;20052;-56
2023/06/15 11:40:16;;;;;;;8.20;7.47;;;38.60;99.90;;;;;;5038586;28;20061;-57
2023/06/15 11:42:42;;;;;;;8.15;7.50;;;40.10;99.90;;;;;;5038976;28;20467;-55
2023/06/15 11:45:18;;;;;;;7.88;7.07;;;40.40;99.90;;;;;;5044121;28;20076;-56
2023/06/15 11:47:45;;;;;;;10.50;9.40;;;41.00;99.90;;;;;;5040262;28;20051;-56
2023/06/15 11:50:11;;;;;;;7.60;7.00;;;42.00;99.90;;;;;;5034861;28;20024;-56
2023/06/15 11:52:43;;;;;;;12.45;8.35;;;40.50;99.90;;;;;;5037499;28;20033;-56
2023/06/15 11:55:10;;;;;;;8.27;7.63;;;39.10;99.90;;;;;;5037549;28;20048;-52
2023/06/15 11:57:36;;;;;;;9.32;8.63;;;38.70;99.90;;;;;;5040268;28;20067;-54
2023/06/15 12:00:07;;;;;;;10.52;9.63;;;39.50;99.90;;;;;;5036983;28;20013;-56
2023/06/15 12:02:34;;;;;;;8.90;7.32;;;39.70;99.90;;;;;;5038814;28;20029;-56
2023/06/15 12:05:02;;;;;;;10.00;8.43;;;39.00;99.90;;;;;;5035770;28;20026;-57
2023/06/15 12:07:32;;;;;;;9.35;7.50;;;35.60;99.90;;;;;;5036410;28;20024;-56
2023/06/15 12:09:59;;;;;;;8.23;7.57;;;34.50;99.90;;;;;;5042185;28;20017;-58
2023/06/15 12:12:32;;;;;;;7.82;7.03;;;33.80;99.90;;;;;;5034089;28;20061;-55
2023/06/15 12:15:02;;;;;;;5.97;5.47;;;35.00;99.90;;;;;;5038152;28;20021;-57
2023/06/15 12:17:35;;;;;;;9.60;8.70;;;35.00;99.90;;;;;;5036080;28;20049;-57
2023/06/15 12:20:11;;;;;;;20.25;13.85;;;34.70;99.90;;;;;;5038272;28;20025;-56
2023/06/15 12:22:41;;;;;;;9.13;8.43;;;35.40;99.90;;;;;;5032084;28;20026;-57
2023/06/15 12:25:07;;;;;;;8.52;7.70;;;36.10;99.90;;;;;;5039420;28;20489;-58
2023/06/15 12:27:33;;;;;;;8.02;7.32;;;36.40;99.90;;;;;;5039302;28;20475;-55
2023/06/15 12:30:16;;;;;;;8.00;7.30;;;36.30;99.90;;;;;;5039017;28;20024;-57
2023/06/15 12:32:47;;;;;;;8.32;7.47;;;36.10;99.90;;;;;;5037166;28;20033;-57
2023/06/15 12:35:38;;;;;;;8.57;7.90;;;36.20;99.90;;;;;;5039236;28;20033;-55
2023/06/15 12:38:07;;;;;;;7.78;7.05;;;36.30;99.90;;;;;;5030983;28;20148;-54
2023/06/15 12:40:41;;;;;;;7.15;6.13;;;35.30;99.90;;;;;;5030345;28;20387;-57
2023/06/15 12:43:07;;;;;;;8.23;7.50;;;35.20;99.90;;;;;;5033407;28;20489;-56
2023/06/15 12:45:33;;;;;;;7.97;6.55;;;35.50;99.90;;;;;;5044586;28;20045;-57
2023/06/15 12:48:00;;;;;;;9.00;8.10;;;35.90;99.90;;;;;;5038631;28;20029;-55
2023/06/15 12:50:28;;;;;;;8.88;8.18;;;35.90;99.90;;;;;;5035650;28;20025;-55
2023/06/15 12:52:57;;;;;;;7.10;6.60;;;35.00;99.90;;;;;;5042875;28;20029;-57
2023/06/15 12:55:23;;;;;;;8.77;6.22;;;35.30;99.90;;;;;;5036322;28;20029;-55
2023/06/15 12:57:49;;;;;;;8.73;7.93;;;34.80;99.90;;;;;;5037644;28;20029;-56